createdAt,value
2022-08-18T00:02:03.128Z,3.90
2022-08-18T00:04:36.580Z,4.10
2022-08-18T00:07:23.740Z,3.45
2022-08-18T00:09:51.630Z,3.47
2022-08-18T00:12:37.606Z,3.50
2022-08-18T00:15:10.334Z,3.80
2022-08-18T00:17:49.763Z,3.60
2022-08-18T00:20:26.628Z,3.63
2022-08-18T00:23:00.093Z,3.25
2022-08-18T00:25:30.603Z,3.22
2022-08-18T00:28:00.186Z,3.28
2022-08-18T00:30:39.229Z,3.55
2022-08-18T00:33:07.929Z,3.30
2022-08-18T00:35:40.198Z,3.20
2022-08-18T00:38:23.297Z,4.13
2022-08-18T00:41:12.652Z,4.10
2022-08-18T00:43:51.541Z,3.55
2022-08-18T00:46:34.776Z,3.50
2022-08-18T00:49:04.807Z,3.75
2022-08-18T00:51:52.331Z,4.13
2022-08-18T00:54:31.379Z,4.13
2022-08-18T00:57:10.129Z,3.63
2022-08-18T00:59:57.776Z,3.28
2022-08-18T01:02:30.668Z,3.67
2022-08-18T01:05:11.121Z,4.10
2022-08-18T01:07:47.603Z,4.03
2022-08-18T01:10:29.197Z,3.78
2022-08-18T01:13:04.031Z,3.95
2022-08-18T01:15:31.282Z,3.47
2022-08-18T01:18:23.715Z,3.67
2022-08-18T01:21:27.137Z,3.67
2022-08-18T01:24:04.358Z,3.65
2022-08-18T01:26:36.827Z,3.40
2022-08-18T01:29:23.426Z,3.63
2022-08-18T01:32:00.045Z,3.33
2022-08-18T01:34:39.510Z,3.33
2022-08-18T01:37:12.147Z,4.13
2022-08-18T01:41:01.001Z,3.80
2022-08-18T01:42:28.946Z,3.70
2022-08-18T01:45:00.487Z,3.88
2022-08-18T01:47:30.165Z,3.97
2022-08-18T01:52:45.806Z,3.22
2022-08-18T01:55:18.565Z,3.65
2022-08-18T01:57:52.559Z,3.70
2022-08-18T02:00:28.691Z,3.30
2022-08-18T02:03:03.276Z,3.97
2022-08-18T02:05:52.757Z,3.70
2022-08-18T02:08:21.456Z,4.32
2022-08-18T02:11:12.729Z,4.35
2022-08-18T02:13:40.756Z,4.30
2022-08-18T02:16:11.100Z,4.25
2022-08-18T02:18:48.534Z,3.58
2022-08-18T02:21:23.027Z,4.55
2022-08-18T02:23:56.056Z,3.92
2022-08-18T02:26:27.676Z,3.75
2022-08-18T02:29:05.607Z,3.47
2022-08-18T02:32:07.627Z,3.75
2022-08-18T02:34:23.190Z,4.47
2022-08-18T02:36:53.055Z,4.13
2022-08-18T02:39:20.865Z,4.13
2022-08-18T02:41:58.237Z,4.10
2022-08-18T02:44:29.286Z,3.92
2022-08-18T02:47:03.466Z,4.65
2022-08-18T02:49:35.109Z,4.53
2022-08-18T02:52:02.605Z,4.68
2022-08-18T02:54:39.537Z,6.40
2022-08-18T02:57:18.366Z,6.03
2022-08-18T02:59:57.876Z,11.50
2022-08-18T03:02:32.441Z,14.30
2022-08-18T03:05:14.650Z,10.48
2022-08-18T03:07:44.050Z,15.90
2022-08-18T03:10:33.461Z,17.60
2022-08-18T03:13:09.415Z,10.57
2022-08-18T03:15:37.767Z,12.05
2022-08-18T03:18:17.765Z,7.72
2022-08-18T03:20:46.986Z,6.55
2022-08-18T03:23:18.456Z,5.20
2022-08-18T03:25:54.306Z,4.60
2022-08-18T03:28:22.645Z,4.20
2022-08-18T03:30:51.656Z,4.50
2022-08-18T03:33:24.076Z,4.32
2022-08-18T03:35:56.127Z,4.40
2022-08-18T03:38:27.905Z,4.38
2022-08-18T03:41:00.906Z,3.78
2022-08-18T03:43:51.338Z,4.00
2022-08-18T03:46:22.028Z,3.55
2022-08-18T03:48:55.167Z,3.80
2022-08-18T03:51:35.236Z,3.28
2022-08-18T03:54:10.537Z,2.88
2022-08-18T03:56:43.150Z,2.33
2022-08-18T03:59:22.580Z,2.50
2022-08-18T04:02:00.894Z,2.47
2022-08-18T04:04:43.451Z,1.80
2022-08-18T04:07:15.855Z,1.50
2022-08-18T04:09:58.086Z,1.92
2022-08-18T04:12:32.785Z,1.75
2022-08-18T04:15:01.955Z,1.67
2022-08-18T04:17:29.317Z,1.70
2022-08-18T04:20:00.104Z,1.70
2022-08-18T04:22:29.865Z,1.50
2022-08-18T04:25:03.425Z,1.25
2022-08-18T04:27:33.665Z,1.30
2022-08-18T04:30:06.915Z,1.30
2022-08-18T04:32:36.665Z,1.30
2022-08-18T04:35:14.166Z,1.40
2022-08-18T04:37:41.828Z,1.20
2022-08-18T04:40:14.880Z,1.58
2022-08-18T04:42:52.357Z,1.40
2022-08-18T04:45:21.406Z,1.50
2022-08-18T04:47:58.214Z,1.48
2022-08-18T04:50:39.975Z,1.40
2022-08-18T04:53:29.542Z,1.58
2022-08-18T04:56:10.517Z,1.70
2022-08-18T04:58:42.124Z,1.50
2022-08-18T05:01:21.649Z,1.65
2022-08-18T05:03:53.121Z,1.73
2022-08-18T05:06:27.641Z,1.52
2022-08-18T05:09:01.304Z,1.50
2022-08-18T05:11:52.252Z,1.70
2022-08-18T05:14:20.327Z,1.63
2022-08-18T05:17:04.545Z,1.52
2022-08-18T05:19:42.309Z,1.60
2022-08-18T05:22:26.808Z,1.70
2022-08-18T05:25:09.957Z,1.75
2022-08-18T05:27:44.593Z,1.60
2022-08-18T05:30:16.538Z,1.50
2022-08-18T05:32:50.306Z,1.80
2022-08-18T05:36:18.846Z,1.50
2022-08-18T05:38:43.146Z,1.67
2022-08-18T05:41:26.184Z,1.58
2022-08-18T05:43:53.540Z,1.50
2022-08-18T05:46:54.142Z,1.95
2022-08-18T05:52:43.246Z,1.35
2022-08-18T05:55:37.045Z,1.48
2022-08-18T05:58:33.056Z,1.40
2022-08-18T06:01:10.206Z,1.40
2022-08-18T06:04:01.866Z,1.40
2022-08-18T06:06:37.695Z,1.83
2022-08-18T06:09:15.791Z,1.60
2022-08-18T06:12:18.656Z,1.63
2022-08-18T06:14:53.115Z,1.58
2022-08-18T06:17:49.119Z,1.40
2022-08-18T06:20:44.195Z,1.52
2022-08-18T06:23:29.465Z,2.00
2022-08-18T06:26:22.105Z,1.33
2022-08-18T06:29:31.045Z,1.50
2022-08-18T06:32:53.318Z,1.75
2022-08-18T06:35:56.256Z,1.48
2022-08-18T06:38:45.413Z,1.40
2022-08-18T06:41:43.432Z,1.48
2022-08-18T06:47:33.166Z,1.27
2022-08-18T07:05:17.088Z,1.45
2022-08-18T07:09:02.455Z,1.52
2022-08-18T07:11:57.836Z,1.63
2022-08-18T07:30:21.865Z,5.28
2022-08-18T07:32:56.709Z,6.72
2022-08-18T07:35:52.096Z,4.80
2022-08-18T07:38:44.558Z,3.70
2022-08-18T07:41:42.970Z,5.18
2022-08-18T07:44:24.165Z,5.53
2022-08-18T07:47:09.436Z,3.95
2022-08-18T07:49:59.704Z,3.80
2022-08-18T07:52:46.995Z,3.35
2022-08-18T07:55:42.576Z,2.80
2022-08-18T07:58:23.264Z,2.88
2022-08-18T08:01:04.992Z,2.70
2022-08-18T08:03:45.924Z,2.88
2022-08-18T08:06:32.446Z,2.42
2022-08-18T08:09:17.635Z,2.42
2022-08-18T08:11:58.769Z,2.10
2022-08-18T08:14:37.185Z,2.22
2022-08-18T08:17:23.730Z,2.17
2022-08-18T08:20:13.906Z,1.92
2022-08-18T08:23:09.550Z,1.80
2022-08-18T08:25:47.262Z,1.80
2022-08-18T08:28:35.952Z,1.73
2022-08-18T08:31:38.611Z,1.60
2022-08-18T08:34:29.225Z,1.67
2022-08-18T08:37:05.515Z,1.30
2022-08-18T08:39:52.441Z,1.55
2022-08-18T08:42:47.660Z,1.40
2022-08-18T08:45:25.134Z,1.58
2022-08-18T08:48:14.677Z,1.30
2022-08-18T08:50:57.545Z,1.52
2022-08-18T08:53:35.816Z,1.70
2022-08-18T08:56:25.632Z,1.02
2022-08-18T08:58:58.985Z,1.20
2022-08-18T09:01:39.408Z,0.90
2022-08-18T09:05:07.759Z,1.10
2022-08-18T09:07:47.449Z,0.95
2022-08-18T09:10:51.503Z,1.08
2022-08-18T09:13:55.121Z,1.15
2022-08-18T09:16:43.557Z,1.17
2022-08-18T09:19:36.805Z,1.20
2022-08-18T09:22:36.990Z,1.10
2022-08-18T09:25:11.978Z,1.20
2022-08-18T09:28:09.259Z,1.50
2022-08-18T09:30:42.609Z,1.30
2022-08-18T09:33:46.595Z,1.30
2022-08-18T09:36:44.850Z,1.30
2022-08-18T09:39:39.095Z,1.30
2022-08-18T09:42:15.920Z,1.10
2022-08-18T09:44:49.283Z,1.42
2022-08-18T09:47:24.556Z,1.48
2022-08-18T09:50:07.360Z,1.35
2022-08-18T09:52:38.045Z,1.60
2022-08-18T09:55:28.906Z,1.48
2022-08-18T09:58:18.396Z,2.08
2022-08-18T10:00:45.690Z,1.88
2022-08-18T10:03:25.661Z,1.55
2022-08-18T10:06:14.068Z,1.33
2022-08-18T10:08:50.540Z,1.50
2022-08-18T10:11:50.987Z,1.52
2022-08-18T10:15:02.655Z,1.50
2022-08-18T10:18:01.911Z,1.30
2022-08-18T10:20:52.215Z,1.30
2022-08-18T10:24:03.158Z,1.45
2022-08-18T10:27:00.415Z,1.30
2022-08-18T10:29:30.223Z,1.48
2022-08-18T10:31:57.757Z,1.73
2022-08-18T10:34:38.970Z,1.88
2022-08-18T10:37:19.780Z,3.35
2022-08-18T10:40:26.636Z,4.03
2022-08-18T10:46:31.922Z,2.63
2022-08-18T10:49:08.799Z,1.63
2022-08-18T10:51:59.875Z,1.75
2022-08-18T10:54:50.954Z,1.30
2022-08-18T10:57:40.111Z,1.40
2022-08-18T11:00:13.971Z,1.40
2022-08-18T11:06:05.867Z,1.40
2022-08-18T11:08:43.925Z,1.33
2022-08-18T11:11:33.695Z,1.70
2022-08-18T11:14:25.648Z,1.70
2022-08-18T11:17:03.071Z,2.22
2022-08-18T11:19:43.025Z,2.33
2022-08-18T11:22:34.442Z,3.00
2022-08-18T11:25:17.456Z,2.58
2022-08-18T11:27:48.499Z,2.83
2022-08-18T11:30:17.307Z,2.55
2022-08-18T11:35:48.768Z,2.30
2022-08-18T11:38:23.059Z,2.40
2022-08-18T11:43:46.651Z,2.05
2022-08-18T11:46:28.136Z,2.00
2022-08-18T11:48:58.129Z,2.00
2022-08-18T11:51:32.472Z,1.98
2022-08-18T11:54:13.324Z,2.20
2022-08-18T11:56:40.500Z,2.15
2022-08-18T12:02:20.898Z,1.85
2022-08-18T12:04:53.504Z,1.88
2022-08-18T12:07:34.045Z,1.73
2022-08-18T12:10:28.651Z,1.90
2022-08-18T12:13:00.374Z,2.10
2022-08-18T12:15:44.837Z,1.83
2022-08-18T12:18:26.001Z,2.00
2022-08-18T12:21:05.560Z,2.30
2022-08-18T12:23:38.974Z,2.25
2022-08-18T12:26:26.867Z,2.65
2022-08-18T12:29:04.926Z,2.60
2022-08-18T12:34:27.326Z,3.42
2022-08-18T12:36:57.466Z,3.95
2022-08-18T12:39:25.119Z,3.63
2022-08-18T12:41:55.185Z,3.30
2022-08-18T12:44:22.440Z,3.13
2022-08-18T12:46:49.787Z,2.72
2022-08-18T12:49:19.893Z,3.10
2022-08-18T12:51:50.392Z,2.78
2022-08-18T12:54:20.112Z,3.00
2022-08-18T12:56:51.172Z,2.90
2022-08-18T12:59:19.114Z,2.72
2022-08-18T13:01:46.792Z,2.85
2022-08-18T13:04:15.734Z,2.78
2022-08-18T13:06:59.102Z,3.42
2022-08-18T13:09:42.568Z,3.83
2022-08-18T13:12:17.483Z,3.15
2022-08-18T13:14:45.690Z,3.38
2022-08-18T13:17:30.052Z,3.47
2022-08-18T13:20:21.600Z,3.03
2022-08-18T13:22:50.213Z,2.65
2022-08-18T13:25:33.285Z,2.90
2022-08-18T13:28:08.455Z,2.78
2022-08-18T13:30:35.783Z,2.78
2022-08-18T13:33:06.059Z,2.50
2022-08-18T13:35:54.962Z,2.95
2022-08-18T13:38:25.649Z,2.97
2022-08-18T13:40:57.746Z,2.55
2022-08-18T13:43:32.439Z,2.80
2022-08-18T13:46:02.332Z,2.50
2022-08-18T13:48:32.070Z,2.65
2022-08-18T13:51:01.438Z,2.42
2022-08-18T13:53:31.547Z,2.60
2022-08-18T13:56:02.865Z,2.65
2022-08-18T13:58:35.516Z,2.70
2022-08-18T14:01:42.591Z,2.35
2022-08-18T14:03:55.056Z,2.80
2022-08-18T14:08:59.618Z,2.30
2022-08-18T14:11:35.331Z,2.50
2022-08-18T14:14:05.957Z,2.00
2022-08-18T14:16:36.746Z,2.10
2022-08-18T14:19:32.118Z,2.40
2022-08-18T14:22:19.047Z,2.10
2022-08-18T14:25:06.892Z,2.30
2022-08-18T14:27:43.656Z,2.47
2022-08-18T14:30:33.474Z,2.38
2022-08-18T14:33:02.923Z,2.63
2022-08-18T14:36:04.649Z,2.33
2022-08-18T14:38:22.641Z,2.95
2022-08-18T14:40:52.051Z,2.15
2022-08-18T14:43:25.043Z,2.28
2022-08-18T14:45:58.071Z,1.88
2022-08-18T14:48:27.685Z,2.80
2022-08-18T14:50:56.564Z,2.38
2022-08-18T14:53:28.228Z,2.28
2022-08-18T14:56:00.158Z,1.60
2022-08-18T14:58:30.303Z,1.73
2022-08-18T15:01:08.378Z,1.98
2022-08-18T15:03:38.466Z,1.77
2022-08-18T15:06:08.087Z,2.05
2022-08-18T15:08:37.666Z,1.90
2022-08-18T15:11:11.821Z,1.83
2022-08-18T15:13:42.837Z,1.80
2022-08-18T15:16:13.831Z,1.60
2022-08-18T15:18:44.885Z,1.67
2022-08-18T15:21:35.760Z,1.50
2022-08-18T15:24:25.673Z,1.83
2022-08-18T15:26:57.899Z,1.50
2022-08-18T15:29:29.377Z,1.48
2022-08-18T15:32:02.241Z,5.13
2022-08-18T15:34:46.665Z,3.30
2022-08-18T15:37:29.666Z,10.95
2022-08-18T15:40:21.874Z,23.90
2022-08-18T15:43:01.593Z,5.50
2022-08-18T15:45:43.505Z,2.90
2022-08-18T15:48:26.581Z,1.77
2022-08-18T15:50:54.357Z,1.80
2022-08-18T15:53:25.480Z,2.00
2022-08-18T15:56:04.414Z,1.70
2022-08-18T15:58:31.897Z,1.92
2022-08-18T16:01:00.674Z,1.70
2022-08-18T16:03:27.769Z,1.90
2022-08-18T16:05:56.265Z,1.85
2022-08-18T16:08:27.234Z,1.95
2022-08-18T16:10:57.344Z,1.98
2022-08-18T16:13:26.649Z,1.70
2022-08-18T16:15:53.966Z,2.38
2022-08-18T16:18:21.208Z,1.83
2022-08-18T16:20:56.760Z,2.00
2022-08-18T16:23:28.139Z,1.90
2022-08-18T16:26:04.869Z,1.92
2022-08-18T16:28:34.925Z,1.63
2022-08-18T16:31:06.265Z,1.60
2022-08-18T16:33:36.484Z,1.73
2022-08-18T16:36:10.819Z,1.65
2022-08-18T16:38:40.456Z,1.63
2022-08-18T16:41:13.917Z,1.50
2022-08-18T16:43:46.226Z,1.83
2022-08-18T16:46:27.210Z,1.80
2022-08-18T16:48:58.914Z,2.08
2022-08-18T16:51:28.285Z,1.60
2022-08-18T16:53:58.863Z,1.90
2022-08-18T16:56:32.822Z,1.60
2022-08-18T16:59:23.835Z,1.83
2022-08-18T17:02:09.597Z,1.65
2022-08-18T17:04:36.843Z,2.05
2022-08-18T17:07:07.533Z,1.70
2022-08-18T17:09:36.155Z,1.73
2022-08-18T17:12:04.153Z,1.42
2022-08-18T17:14:34.894Z,1.40
2022-08-18T17:17:05.887Z,1.50
2022-08-18T17:19:35.134Z,1.60
2022-08-18T17:22:05.326Z,1.40
2022-08-18T17:24:44.098Z,1.70
2022-08-18T17:27:27.003Z,1.60
2022-08-18T17:30:00.649Z,1.40
2022-08-18T17:32:48.509Z,1.70
2022-08-18T17:35:28.959Z,1.70
2022-08-18T17:38:23.037Z,1.80
2022-08-18T17:40:55.667Z,1.50
2022-08-18T17:43:30.709Z,1.60
2022-08-18T17:46:13.379Z,1.80
2022-08-18T17:48:53.775Z,1.80
2022-08-18T17:51:35.366Z,1.80
2022-08-18T17:54:08.329Z,1.73
2022-08-18T17:56:51.180Z,1.60
2022-08-18T17:59:46.399Z,2.10
2022-08-18T18:02:29.625Z,1.52
2022-08-18T18:05:10.296Z,1.80
2022-08-18T18:07:52.155Z,1.80
2022-08-18T18:11:04.424Z,1.60
2022-08-18T18:13:34.130Z,1.65
2022-08-18T18:16:24.725Z,1.45
2022-08-18T18:18:59.995Z,1.80
2022-08-18T18:22:01.035Z,1.80
2022-08-18T18:24:17.726Z,1.67
2022-08-18T18:26:52.332Z,1.80
2022-08-18T18:29:22.092Z,2.08
2022-08-18T18:31:56.611Z,1.70
2022-08-18T18:34:39.792Z,1.90
2022-08-18T18:37:27.776Z,2.40
2022-08-18T18:39:58.777Z,2.13
2022-08-18T18:42:29.461Z,1.80
2022-08-18T18:45:00.339Z,2.10
2022-08-18T18:47:48.917Z,1.80
2022-08-18T18:50:40.366Z,2.05
2022-08-18T18:53:25.992Z,2.17
2022-08-18T18:56:31.558Z,3.50
2022-08-18T18:59:16.974Z,1.85
2022-08-18T19:01:51.401Z,2.13
2022-08-18T19:04:30.157Z,2.03
2022-08-18T19:07:12.012Z,1.92
2022-08-18T19:09:51.972Z,2.15
2022-08-18T19:12:24.568Z,2.15
2022-08-18T19:15:00.100Z,2.08
2022-08-18T19:17:40.577Z,1.88
2022-08-18T19:20:13.867Z,2.00
2022-08-18T19:22:50.007Z,2.15
2022-08-18T19:25:33.782Z,1.73
2022-08-18T19:28:20.112Z,2.10
2022-08-18T19:30:50.872Z,2.58
2022-08-18T19:33:43.641Z,2.30
2022-08-18T19:36:35.255Z,2.20
2022-08-18T19:39:32.612Z,2.13
2022-08-18T19:42:40.456Z,2.25
2022-08-18T19:45:43.077Z,2.63
2022-08-18T19:48:26.139Z,2.72
2022-08-18T19:51:17.932Z,2.72
2022-08-18T19:54:26.557Z,2.15
2022-08-18T19:57:29.568Z,2.00
2022-08-18T20:00:20.738Z,2.10
2022-08-18T20:03:18.767Z,2.35
2022-08-18T20:06:13.286Z,2.10
2022-08-18T20:09:17.772Z,2.40
2022-08-18T20:11:50.615Z,2.30
2022-08-18T20:14:19.622Z,2.10
2022-08-18T20:17:07.426Z,2.03
2022-08-18T20:19:34.398Z,2.00
2022-08-18T20:22:04.578Z,2.33
2022-08-18T20:24:31.547Z,2.22
2022-08-18T20:27:16.292Z,2.15
2022-08-18T20:29:46.445Z,2.53
2022-08-18T20:32:29.332Z,2.03
2022-08-18T20:35:16.287Z,1.80
2022-08-18T20:37:43.879Z,2.13
2022-08-18T20:40:41.197Z,2.45
2022-08-18T20:43:24.196Z,1.75
2022-08-18T20:45:59.632Z,2.00
2022-08-18T20:51:11.632Z,1.70
2022-08-18T20:54:01.586Z,2.00
2022-08-18T20:56:43.934Z,1.98
2022-08-18T20:59:21.501Z,2.15
2022-08-18T21:02:00.236Z,1.75
2022-08-18T21:04:54.856Z,1.80
2022-08-18T21:07:36.331Z,1.95
2022-08-18T21:10:29.865Z,1.80
2022-08-18T21:13:02.516Z,2.30
2022-08-18T21:15:37.207Z,2.00
2022-08-18T21:18:20.658Z,1.85
2022-08-18T21:20:53.922Z,2.10
2022-08-18T21:23:26.156Z,1.83
2022-08-18T21:26:00.054Z,2.17
2022-08-18T21:28:31.429Z,2.40
2022-08-18T21:31:41.573Z,2.10
2022-08-18T21:34:04.673Z,2.00
2022-08-18T21:36:35.646Z,2.15
2022-08-18T21:39:10.935Z,1.92
2022-08-18T21:41:53.585Z,2.20
2022-08-18T21:44:42.747Z,1.55
2022-08-18T21:47:20.625Z,1.83
2022-08-18T21:50:15.535Z,2.00
2022-08-18T21:52:55.780Z,2.00
2022-08-18T21:55:33.331Z,2.28
2022-08-18T21:58:16.951Z,2.30
2022-08-18T22:00:47.349Z,1.95
2022-08-18T22:03:20.806Z,2.13
2022-08-18T22:06:13.785Z,2.30
2022-08-18T22:08:56.041Z,2.38
2022-08-18T22:12:00.735Z,2.40
2022-08-18T22:14:54.667Z,2.15
2022-08-18T22:17:32.627Z,3.05
2022-08-18T22:20:34.086Z,2.60
2022-08-18T22:23:31.665Z,2.00
2022-08-18T22:26:26.329Z,1.90
2022-08-18T22:29:34.086Z,2.28
2022-08-18T22:32:04.164Z,2.13
2022-08-18T22:34:34.378Z,2.20
2022-08-18T22:37:32.695Z,2.30
2022-08-18T22:40:11.660Z,2.25
2022-08-18T22:42:39.389Z,2.30
2022-08-18T22:45:13.576Z,2.60
2022-08-18T22:47:43.628Z,2.40
2022-08-18T22:50:13.654Z,2.15
2022-08-18T22:52:46.674Z,2.42
2022-08-18T22:55:22.070Z,2.35
2022-08-18T22:57:54.333Z,2.08
2022-08-18T23:00:23.932Z,2.50
2022-08-18T23:02:53.505Z,2.50
2022-08-18T23:05:21.788Z,2.45
2022-08-18T23:07:49.816Z,1.90
2022-08-18T23:10:17.045Z,2.45
2022-08-18T23:12:46.855Z,2.15
2022-08-18T23:15:16.100Z,2.00
2022-08-18T23:17:43.848Z,1.98
2022-08-18T23:20:17.543Z,1.92
2022-08-18T23:22:45.578Z,1.80
2022-08-18T23:25:13.538Z,1.77
2022-08-18T23:27:41.414Z,2.22
2022-08-18T23:30:09.494Z,2.17
2022-08-18T23:32:36.865Z,2.10
2022-08-18T23:35:05.095Z,2.13
2022-08-18T23:37:32.235Z,1.63
2022-08-18T23:39:59.551Z,1.90
2022-08-18T23:42:26.790Z,1.70
2022-08-18T23:44:53.894Z,1.95
2022-08-18T23:47:21.227Z,2.42
2022-08-18T23:49:48.694Z,1.83
2022-08-18T23:52:15.865Z,2.05
2022-08-18T23:54:42.964Z,2.00
2022-08-18T23:57:09.985Z,1.90
2022-08-18T23:59:37.010Z,2.28
